M Y Suncoco — SY7908 — position and weather

sailwx.info

Track history (hours):
 
Tides and Currents Weather Stations Pressure Air Temp Water Temp Dewpoint Dewpoint Depression Visibility Wind Speed Wind Dir Waves Ship Positions

M Y Suncoco

Last reported at 2016-Jun-25 10:18 UTC. Time now 2016-Jun-26 22:51 UTC.
Position N 37°02' E 025°05'.

Length 32 m; draft 2.8 m.

Type: Other ship. MMSI: 239112700.

Date/timePositionNaut miles runAvg speedWind from/ knotsBaromVisibWave heightAir tempDewpointWater temp
2016-Jun-25 10:18N 37°02' E 025°05'0 0.2
2016-Jun-25 09:32N 37°02' E 025°05'0 0.0
2016-Jun-25 08:32N 37°02' E 025°05'8 0.5
2016-Jun-24 17:10N 36°59' E 025°15'710.7
2016-Jun-24 16:33N 37°04' E 025°20'0 0.1
2016-Jun-24 15:31N 37°05' E 025°20'0 0.0
2016-Jun-24 14:31N 37°05' E 025°20'2 2.4
2016-Jun-24 13:31N 37°06' E 025°22'0 0.0
2016-Jun-24 12:31N 37°06' E 025°22'0 0.0
2016-Jun-24 11:28N 37°06' E 025°22'0 0.0
2016-Jun-24 10:31N 37°06' E 025°22'6 6.7
2016-Jun-24 09:33N 37°09' E 025°15'1 0.9
2016-Jun-24 08:30N 37°09' E 025°14'0 0.0
2016-Jun-24 07:33N 37°09' E 025°14'0 0.0
2016-Jun-24 04:18N 37°09' E 025°14'0 0.0
2016-Jun-24 02:15N 37°09' E 025°14'0 0.0
2016-Jun-24 01:21N 37°09' E 025°14'0 0.0
2016-Jun-23 23:33N 37°09' E 025°14'0 0.0
2016-Jun-23 22:27N 37°09' E 025°14'0 0.0
2016-Jun-23 21:21N 37°09' E 025°14'0 0.0
2016-Jun-23 20:27N 37°09' E 025°14'0 0.0
2016-Jun-23 19:30N 37°09' E 025°14'0 0.0
2016-Jun-23 18:33N 37°09' E 025°14'0 0.0
2016-Jun-23 17:18N 37°09' E 025°14'0 0.0
2016-Jun-23 16:30N 37°09' E 025°14'0 0.0
2016-Jun-23 15:09N 37°09' E 025°14'0 0.0
2016-Jun-23 14:33N 37°09' E 025°14'0 0.0
2016-Jun-23 12:12N 37°09' E 025°14'0 0.0
2016-Jun-23 11:24N 37°09' E 025°14'0 0.0
2016-Jun-23 10:30N 37°09' E 025°14'0 0.0
2016-Jun-23 09:33N 37°09' E 025°14'0 0.0
2016-Jun-23 08:24N 37°09' E 025°14'0 0.0
2016-Jun-23 05:30N 37°09' E 025°14'0 0.0
2016-Jun-23 04:24N 37°09' E 025°14'4 4.6
2016-Jun-23 03:33N 37°12' E 025°13'9 8.9
2016-Jun-23 02:33N 37°20' E 025°20'5 4.9
2016-Jun-23 01:33N 37°25' E 025°20'0 0.0
2016-Jun-23 00:12N 37°25' E 025°20'0 0.0
2016-Jun-22 23:30N 37°25' E 025°20'0 0.0
2016-Jun-21 22:32N 37°25' E 025°20'0 0.0
2016-Jun-21 16:31N 37°25' E 025°20'5 5.0
2016-Jun-21 15:33N 37°23' E 025°14'0 0.0
2016-Jun-21 14:33N 37°23' E 025°14'0 0.0
2016-Jun-21 13:33N 37°23' E 025°14'0 0.0
2016-Jun-21 12:30N 37°23' E 025°14'1 0.9
2016-Jun-21 11:13N 37°23' E 025°16'0 0.6
2016-Jun-21 10:33N 37°23' E 025°16'4 4.3
2016-Jun-21 09:33N 37°25' E 025°21'0 0.0
2016-Jun-21 08:33N 37°25' E 025°21'0 0.0
2016-Jun-21 07:21N 37°25' E 025°21'0 0.0
2016-Jun-21 04:33N 37°25' E 025°21'0 0.0
2016-Jun-21 03:30N 37°25' E 025°21'0 0.0
2016-Jun-21 02:24N 37°25' E 025°21'0 0.0
2016-Jun-21 01:33N 37°25' E 025°21'0 0.0
2016-Jun-21 00:33N 37°25' E 025°21'0 0.0
2016-Jun-20 23:30N 37°25' E 025°21'0 0.0
2016-Jun-20 22:27N 37°25' E 025°21'0 0.0
2016-Jun-20 21:30N 37°25' E 025°21'0 0.0
2016-Jun-20 20:30N 37°25' E 025°21'0 0.0
2016-Jun-20 19:27N 37°25' E 025°21'0 0.0
2016-Jun-20 18:21N 37°25' E 025°21'1 1.4
2016-Jun-20 17:33N 37°24' E 025°20'1010.1
2016-Jun-20 16:33N 37°22' E 025°07'1110.8
2016-Jun-20 15:33N 37°21' E 024°54'4810.7
2016-Jun-20 11:04N 37°38' E 023°57'610.9
2016-Jun-20 10:33N 37°42' E 023°52'7 7.2
2016-Jun-20 09:31N 37°48' E 023°46'0 0.0
2016-Jun-20 08:31N 37°48' E 023°46'0 0.0
2016-Jun-20 07:31N 37°48' E 023°46'0 0.0
2016-Jun-20 06:31N 37°48' E 023°46'  
2016-Jun-17 11:05N 37°48' E 023°46'0 0.0
2016-Jun-17 10:32N 37°48' E 023°46'7 7.5
2016-Jun-17 09:33N 37°43' E 023°53'  
Track history (hours):
 
Tides and Currents Weather Stations Pressure Air Temp Water Temp Dewpoint Dewpoint Depression Visibility Wind Speed Wind Dir Waves Ship Positions

M Y Suncoco

Last reported at 2016-Jun-25 10:18 UTC. Time now 2016-Jun-26 22:51 UTC.
Position N 37°02' E 025°05'.

Length 32 m; draft 2.8 m.

Type: Other ship. MMSI: 239112700.

Date/timePositionNaut miles runAvg speedWind from/ knotsBaromVisibWave heightAir tempDewpointWater temp
2016-Jun-25 10:18N 37°02' E 025°05'0 0.2
2016-Jun-25 09:32N 37°02' E 025°05'0 0.0
2016-Jun-25 08:32N 37°02' E 025°05'8 0.5
2016-Jun-24 17:10N 36°59' E 025°15'710.7
2016-Jun-24 16:33N 37°04' E 025°20'0 0.1
2016-Jun-24 15:31N 37°05' E 025°20'0 0.0
2016-Jun-24 14:31N 37°05' E 025°20'2 2.4
2016-Jun-24 13:31N 37°06' E 025°22'0 0.0
2016-Jun-24 12:31N 37°06' E 025°22'0 0.0
2016-Jun-24 11:28N 37°06' E 025°22'0 0.0
2016-Jun-24 10:31N 37°06' E 025°22'6 6.7
2016-Jun-24 09:33N 37°09' E 025°15'1 0.9
2016-Jun-24 08:30N 37°09' E 025°14'0 0.0
2016-Jun-24 07:33N 37°09' E 025°14'0 0.0
2016-Jun-24 04:18N 37°09' E 025°14'0 0.0
2016-Jun-24 02:15N 37°09' E 025°14'0 0.0
2016-Jun-24 01:21N 37°09' E 025°14'0 0.0
2016-Jun-23 23:33N 37°09' E 025°14'0 0.0
2016-Jun-23 22:27N 37°09' E 025°14'0 0.0
2016-Jun-23 21:21N 37°09' E 025°14'0 0.0
2016-Jun-23 20:27N 37°09' E 025°14'0 0.0
2016-Jun-23 19:30N 37°09' E 025°14'0 0.0
2016-Jun-23 18:33N 37°09' E 025°14'0 0.0
2016-Jun-23 17:18N 37°09' E 025°14'0 0.0
2016-Jun-23 16:30N 37°09' E 025°14'0 0.0
2016-Jun-23 15:09N 37°09' E 025°14'0 0.0
2016-Jun-23 14:33N 37°09' E 025°14'0 0.0
2016-Jun-23 12:12N 37°09' E 025°14'0 0.0
2016-Jun-23 11:24N 37°09' E 025°14'0 0.0
2016-Jun-23 10:30N 37°09' E 025°14'0 0.0
2016-Jun-23 09:33N 37°09' E 025°14'0 0.0
2016-Jun-23 08:24N 37°09' E 025°14'0 0.0
2016-Jun-23 05:30N 37°09' E 025°14'0 0.0
2016-Jun-23 04:24N 37°09' E 025°14'4 4.6
2016-Jun-23 03:33N 37°12' E 025°13'9 8.9
2016-Jun-23 02:33N 37°20' E 025°20'5 4.9
2016-Jun-23 01:33N 37°25' E 025°20'0 0.0
2016-Jun-23 00:12N 37°25' E 025°20'0 0.0
2016-Jun-22 23:30N 37°25' E 025°20'0 0.0
2016-Jun-21 22:32N 37°25' E 025°20'0 0.0
2016-Jun-21 16:31N 37°25' E 025°20'5 5.0
2016-Jun-21 15:33N 37°23' E 025°14'0 0.0
2016-Jun-21 14:33N 37°23' E 025°14'0 0.0
2016-Jun-21 13:33N 37°23' E 025°14'0 0.0
2016-Jun-21 12:30N 37°23' E 025°14'1 0.9
2016-Jun-21 11:13N 37°23' E 025°16'0 0.6
2016-Jun-21 10:33N 37°23' E 025°16'4 4.3
2016-Jun-21 09:33N 37°25' E 025°21'0 0.0
2016-Jun-21 08:33N 37°25' E 025°21'0 0.0
2016-Jun-21 07:21N 37°25' E 025°21'0 0.0
2016-Jun-21 04:33N 37°25' E 025°21'0 0.0
2016-Jun-21 03:30N 37°25' E 025°21'0 0.0
2016-Jun-21 02:24N 37°25' E 025°21'0 0.0
2016-Jun-21 01:33N 37°25' E 025°21'0 0.0
2016-Jun-21 00:33N 37°25' E 025°21'0 0.0
2016-Jun-20 23:30N 37°25' E 025°21'0 0.0
2016-Jun-20 22:27N 37°25' E 025°21'0 0.0
2016-Jun-20 21:30N 37°25' E 025°21'0 0.0
2016-Jun-20 20:30N 37°25' E 025°21'0 0.0
2016-Jun-20 19:27N 37°25' E 025°21'0 0.0
2016-Jun-20 18:21N 37°25' E 025°21'1 1.4
2016-Jun-20 17:33N 37°24' E 025°20'1010.1
2016-Jun-20 16:33N 37°22' E 025°07'1110.8
2016-Jun-20 15:33N 37°21' E 024°54'4810.7
2016-Jun-20 11:04N 37°38' E 023°57'610.9
2016-Jun-20 10:33N 37°42' E 023°52'7 7.2
2016-Jun-20 09:31N 37°48' E 023°46'0 0.0
2016-Jun-20 08:31N 37°48' E 023°46'0 0.0
2016-Jun-20 07:31N 37°48' E 023°46'0 0.0
2016-Jun-20 06:31N 37°48' E 023°46'  
2016-Jun-17 11:05N 37°48' E 023°46'0 0.0
2016-Jun-17 10:32N 37°48' E 023°46'7 7.5
2016-Jun-17 09:33N 37°43' E 023°53'  

Dump ship's entire track history